Time;durP1;ratioP1;P1;durP2;ratioP2;P2;SDS_P1;SDS_P2;PMS_P1;PMS_P2;Temp;Humidity;BMP_temperature;BMP_pressure;BME280_temperature;BME280_humidity;BME280_pressure;Samples;Min_cycle;Max_cycle;Signal;HPM_P1;HPM_P2
2023/06/27 00:01:14;;;;;;;11.33;5.67;;;20.40;79.00;;;;;;5102523;27;20751;-61
2023/06/27 00:03:41;;;;;;;5.50;4.33;;;20.30;79.00;;;;;;5109888;27;20480;-61
2023/06/27 00:06:07;;;;;;;6.10;5.30;;;20.30;77.50;;;;;;5122389;27;20528;-60
2023/06/27 00:08:34;;;;;;;10.53;5.67;;;20.30;77.20;;;;;;5071187;27;21299;-62
2023/06/27 00:11:02;;;;;;;12.87;6.73;;;20.30;77.50;;;;;;5104035;27;20487;-61
2023/06/27 00:13:29;;;;;;;15.97;4.87;;;20.30;77.40;;;;;;5089008;27;20734;-60
2023/06/27 00:16:00;;;;;;;14.10;6.13;;;20.30;77.00;;;;;;5098970;27;20602;-60
2023/06/27 00:18:34;;;;;;;15.33;5.67;;;20.30;76.30;;;;;;5120974;27;20502;-60
2023/06/27 00:21:01;;;;;;;7.07;4.50;;;20.40;75.90;;;;;;5104831;27;20533;-61
2023/06/27 00:23:33;;;;;;;8.70;5.00;;;20.40;76.40;;;;;;5062569;27;20476;-61
2023/06/27 00:25:59;;;;;;;16.27;5.90;;;18.90;75.20;;;;;;5086207;27;20476;-60
2023/06/27 00:28:27;;;;;;;14.63;6.17;;;20.30;76.80;;;;;;5088948;27;20471;-61
2023/06/27 00:30:54;;;;;;;13.97;5.17;;;20.30;76.80;;;;;;5110600;27;20832;-61
2023/06/27 00:33:21;;;;;;;15.60;5.00;;;20.20;77.00;;;;;;5115962;27;20484;-61
2023/06/27 00:35:47;;;;;;;12.50;5.73;;;20.20;77.00;;;;;;5109577;27;20479;-61
2023/06/27 00:38:14;;;;;;;13.17;5.40;;;20.20;77.40;;;;;;5099085;27;20556;-60
2023/06/27 00:40:41;;;;;;;13.90;3.93;;;20.20;77.10;;;;;;5120221;27;20476;-62
2023/06/27 00:43:08;;;;;;;9.30;5.33;;;20.10;77.90;;;;;;5103328;27;20819;-62
2023/06/27 00:45:36;;;;;;;7.40;4.60;;;19.90;78.90;;;;;;5087546;27;21005;-61
2023/06/27 00:48:03;;;;;;;20.63;6.83;;;19.80;78.80;;;;;;5079409;27;20817;-60
2023/06/27 00:50:30;;;;;;;7.50;4.13;;;19.70;78.70;;;;;;5110516;27;20889;-61
2023/06/27 00:52:59;;;;;;;16.03;7.03;;;19.70;78.00;;;;;;5098674;27;20513;-62
2023/06/27 00:55:26;;;;;;;9.80;4.43;;;17.20;76.30;;;;;;5058323;28;20485;-61
2023/06/27 00:57:54;;;;;;;14.17;5.43;;;19.60;78.40;;;;;;5073352;28;20485;-60
2023/06/27 01:00:21;;;;;;;15.70;6.33;;;19.70;78.50;;;;;;5056794;28;20525;-62
2023/06/27 01:02:49;;;;;;;5.90;3.70;;;19.70;79.60;;;;;;5058789;28;20505;-61
2023/06/27 01:05:17;;;;;;;15.33;7.10;;;19.60;80.10;;;;;;5069440;28;20550;-60
2023/06/27 01:07:51;;;;;;;12.10;6.17;;;18.10;79.10;;;;;;5069191;28;20487;-60
2023/06/27 01:10:27;;;;;;;14.67;4.50;;;19.40;81.30;;;;;;5088641;28;20487;-62
2023/06/27 01:13:02;;;;;;;18.27;7.87;;;19.50;81.70;;;;;;5064888;28;21021;-60
2023/06/27 01:15:29;;;;;;;20.27;7.37;;;19.40;81.30;;;;;;5089639;28;20555;-62
2023/06/27 01:17:58;;;;;;;14.93;6.23;;;19.30;82.20;;;;;;5092427;28;20693;-61
2023/06/27 01:20:26;;;;;;;27.27;8.80;;;19.20;81.60;;;;;;5066126;28;20491;-60
2023/06/27 01:23:05;;;;;;;20.50;6.73;;;19.10;81.90;;;;;;5077769;28;20757;-60
2023/06/27 01:25:33;;;;;;;15.63;6.63;;;19.10;81.30;;;;;;5053815;28;20545;-60
2023/06/27 01:27:59;;;;;;;22.03;8.80;;;19.10;81.70;;;;;;5082039;28;21082;-61
2023/06/27 01:30:26;;;;;;;13.70;6.10;;;19.10;82.10;;;;;;5091217;28;20877;-60
2023/06/27 01:32:59;;;;;;;16.77;6.87;;;19.00;82.80;;;;;;5053350;28;20533;-61
2023/06/27 01:35:32;;;;;;;13.20;4.67;;;18.90;82.70;;;;;;5062570;28;20481;-61
2023/06/27 01:38:05;;;;;;;36.67;10.23;;;18.90;82.70;;;;;;5091947;28;20578;-60
2023/06/27 01:40:37;;;;;;;20.53;7.43;;;18.70;83.20;;;;;;5096021;28;20492;-61
2023/06/27 01:43:08;;;;;;;11.40;7.20;;;18.60;83.40;;;;;;5081531;28;21079;-60
2023/06/27 01:45:35;;;;;;;20.37;7.90;;;18.50;83.10;;;;;;5081268;28;20484;-61
2023/06/27 01:48:02;;;;;;;26.97;9.07;;;18.50;83.10;;;;;;5092246;28;20558;-60
2023/06/27 01:50:29;;;;;;;33.70;9.37;;;18.50;83.70;;;;;;5079459;28;20540;-59
2023/06/27 01:52:56;;;;;;;27.93;7.70;;;18.40;83.70;;;;;;5097069;28;20481;-61
2023/06/27 01:55:23;;;;;;;25.23;7.90;;;18.20;82.50;;;;;;5094043;28;21173;-61
2023/06/27 01:57:51;;;;;;;18.23;6.33;;;18.20;83.00;;;;;;5099138;28;20892;-61
2023/06/27 02:00:18;;;;;;;27.03;9.57;;;18.20;83.80;;;;;;5087346;28;20481;-61
2023/06/27 02:02:45;;;;;;;18.80;5.37;;;18.20;84.20;;;;;;5064484;28;20891;-61
2023/06/27 02:05:12;;;;;;;27.00;9.03;;;18.10;84.50;;;;;;5081853;28;20548;-60
2023/06/27 02:07:39;;;;;;;17.17;6.30;;;18.00;84.00;;;;;;5099109;28;20503;-61
2023/06/27 02:10:07;;;;;;;21.33;7.10;;;20.80;86.60;;;;;;5077141;28;20461;-61
2023/06/27 02:12:33;;;;;;;27.87;8.87;;;18.00;84.40;;;;;;5081193;28;20485;-60
2023/06/27 02:15:02;;;;;;;25.47;9.23;;;18.00;84.20;;;;;;5077799;28;21036;-61
2023/06/27 02:17:29;;;;;;;32.37;8.37;;;17.90;84.00;;;;;;5096911;28;21240;-61
2023/06/27 02:19:56;;;;;;;23.50;8.20;;;17.80;84.20;;;;;;5099956;28;20491;-60
2023/06/27 02:22:22;;;;;;;23.93;8.20;;;17.80;84.40;;;;;;5100526;28;20476;-61
2023/06/27 02:24:49;;;;;;;15.13;6.20;;;17.80;84.60;;;;;;5095740;28;20511;-60
2023/06/27 02:27:16;;;;;;;20.53;7.73;;;17.70;85.10;;;;;;5071062;28;20476;-61
2023/06/27 02:29:42;;;;;;;17.20;6.30;;;17.70;85.10;;;;;;5095764;28;20794;-60
2023/06/27 02:32:11;;;;;;;46.40;12.57;;;17.50;85.60;;;;;;5050675;27;20870;-60
2023/06/27 02:34:37;;;;;;;20.10;8.07;;;17.50;85.70;;;;;;5093724;28;20477;-61
2023/06/27 02:37:05;;;;;;;38.43;11.57;;;17.40;86.10;;;;;;5097396;28;20941;-60
2023/06/27 02:39:31;;;;;;;19.33;6.43;;;17.40;86.40;;;;;;5096382;28;20553;-61
2023/06/27 02:41:58;;;;;;;28.20;9.10;;;17.40;86.60;;;;;;5093847;27;21245;-61
2023/06/27 02:44:25;;;;;;;26.70;8.37;;;17.30;86.60;;;;;;5096565;27;20939;-61
2023/06/27 02:46:51;;;;;;;26.17;7.60;;;17.20;86.60;;;;;;5073725;28;20529;-60
2023/06/27 02:49:19;;;;;;;29.33;9.50;;;16.80;86.70;;;;;;5089187;28;20477;-60
2023/06/27 02:51:46;;;;;;;15.07;6.57;;;17.10;86.30;;;;;;5097633;28;20465;-61
2023/06/27 02:54:13;;;;;;;29.43;9.03;;;17.20;86.60;;;;;;5109804;27;21001;-60
2023/06/27 02:56:40;;;;;;;15.70;6.20;;;17.20;86.70;;;;;;5108615;27;20492;-62
2023/06/27 02:59:07;;;;;;;37.30;10.63;;;17.30;86.80;;;;;;5106970;27;20499;-60
2023/06/27 03:01:34;;;;;;;17.33;5.77;;;17.30;87.00;;;;;;5086940;27;20495;-59
2023/06/27 03:04:01;;;;;;;44.13;13.67;;;17.30;87.20;;;;;;5112554;27;20583;-61
2023/06/27 03:06:29;;;;;;;23.90;8.30;;;17.30;87.30;;;;;;5114626;27;20472;-60
2023/06/27 03:08:58;;;;;;;24.50;8.30;;;17.20;86.80;;;;;;5102680;27;20487;-60
2023/06/27 03:11:24;;;;;;;32.13;10.03;;;17.30;87.80;;;;;;5114741;27;21260;-59
2023/06/27 03:13:51;;;;;;;20.03;7.30;;;17.40;87.30;;;;;;5061892;27;20966;-61
2023/06/27 03:16:18;;;;;;;22.00;6.83;;;17.40;87.10;;;;;;5096352;27;20524;-62
2023/06/27 03:18:44;;;;;;;17.73;6.50;;;17.30;87.20;;;;;;5111503;27;20575;-60
2023/06/27 03:21:11;;;;;;;32.27;10.07;;;17.10;87.90;;;;;;5088179;27;20523;-60
2023/06/27 03:23:39;;;;;;;15.17;5.50;;;17.30;87.20;;;;;;5117221;27;20472;-59
2023/06/27 03:26:06;;;;;;;36.00;11.30;;;17.20;88.00;;;;;;5068694;28;20465;-60
2023/06/27 03:28:32;;;;;;;29.50;9.57;;;17.10;88.00;;;;;;5108871;27;21015;-60
2023/06/27 03:30:59;;;;;;;33.70;9.20;;;17.10;87.80;;;;;;5102685;27;21057;-60
2023/06/27 03:33:26;;;;;;;21.60;6.60;;;17.10;87.50;;;;;;5116795;27;21102;-59
2023/06/27 03:35:52;;;;;;;23.70;8.17;;;17.10;87.60;;;;;;5113520;27;21022;-60
2023/06/27 03:38:19;;;;;;;20.23;6.53;;;17.10;87.40;;;;;;5091490;27;20485;-60
2023/06/27 03:40:47;;;;;;;17.70;7.00;;;17.20;87.20;;;;;;5106856;27;20488;-60
2023/06/27 03:43:14;;;;;;;21.43;7.60;;;17.10;88.00;;;;;;5082907;27;20481;-60
2023/06/27 03:45:41;;;;;;;20.60;6.70;;;17.20;87.00;;;;;;5097399;27;20481;-60
2023/06/27 03:48:07;;;;;;;42.77;13.40;;;17.10;87.30;;;;;;5100704;27;20809;-60
2023/06/27 03:50:36;;;;;;;18.93;6.77;;;17.10;88.30;;;;;;5098081;27;20483;-61
2023/06/27 03:53:04;;;;;;;43.47;11.50;;;17.00;88.00;;;;;;5100087;27;20991;-60
2023/06/27 03:55:32;;;;;;;27.40;9.87;;;17.00;88.00;;;;;;5105850;27;20478;-61
2023/06/27 03:58:01;;;;;;;28.20;9.10;;;17.00;89.10;;;;;;5089369;28;20501;-60
2023/06/27 04:00:27;;;;;;;29.83;8.50;;;16.90;89.80;;;;;;5090441;28;20461;-61
2023/06/27 04:02:54;;;;;;;24.27;8.30;;;16.90;89.80;;;;;;5082678;28;20479;-60
2023/06/27 04:05:21;;;;;;;25.40;8.07;;;16.90;89.50;;;;;;5092217;27;21184;-61
2023/06/27 04:07:47;;;;;;;15.40;5.53;;;16.90;88.80;;;;;;5084866;28;20494;-60
2023/06/27 04:10:14;;;;;;;32.63;10.63;;;16.90;89.40;;;;;;5081295;27;20476;-59
2023/06/27 04:12:41;;;;;;;16.40;6.37;;;16.80;89.90;;;;;;5087618;27;20484;-60
2023/06/27 04:15:10;;;;;;;26.83;8.97;;;16.60;90.10;;;;;;5104069;27;20546;-60
2023/06/27 04:17:36;;;;;;;17.13;5.73;;;16.60;89.80;;;;;;5080860;27;20901;-60
2023/06/27 04:20:04;;;;;;;42.40;12.60;;;16.60;90.10;;;;;;5095154;27;20562;-60
2023/06/27 04:22:30;;;;;;;35.97;11.07;;;16.60;89.40;;;;;;5092966;27;20547;-60
2023/06/27 04:24:57;;;;;;;37.00;11.47;;;16.70;90.10;;;;;;5092130;27;20521;-60
2023/06/27 04:27:24;;;;;;;22.93;7.50;;;16.70;90.30;;;;;;5093436;27;20481;-60
2023/06/27 04:29:50;;;;;;;18.67;6.70;;;16.70;90.10;;;;;;5108469;27;20477;-60
2023/06/27 04:32:18;;;;;;;31.97;9.57;;;16.80;90.10;;;;;;5080644;27;20480;-60
2023/06/27 04:34:45;;;;;;;18.43;7.70;;;16.80;90.50;;;;;;5095713;27;20515;-60
2023/06/27 04:37:11;;;;;;;20.93;6.80;;;16.60;90.70;;;;;;5096444;27;21158;-60
2023/06/27 04:39:38;;;;;;;17.83;6.50;;;16.40;91.30;;;;;;5105090;27;20541;-60
2023/06/27 04:42:05;;;;;;;44.30;13.10;;;16.40;91.40;;;;;;5096476;27;20487;-61
2023/06/27 04:44:32;;;;;;;27.67;7.50;;;16.30;91.30;;;;;;5111788;27;20963;-61
2023/06/27 04:46:58;;;;;;;35.40;11.17;;;16.20;91.60;;;;;;5115118;27;21762;-59
2023/06/27 04:49:26;;;;;;;22.80;7.33;;;16.10;92.10;;;;;;5107477;27;20557;-61
2023/06/27 04:51:53;;;;;;;34.70;10.10;;;;;;;;;;5079090;27;20490;-61
2023/06/27 04:54:20;;;;;;;34.57;11.20;;;16.00;92.10;;;;;;5087704;27;20477;-60
2023/06/27 04:56:47;;;;;;;21.33;7.23;;;16.00;92.20;;;;;;5106150;27;20983;-59
2023/06/27 04:59:13;;;;;;;27.40;8.40;;;16.00;92.70;;;;;;5104824;27;20492;-60
2023/06/27 05:01:40;;;;;;;21.67;7.73;;;16.00;92.60;;;;;;5108337;27;20488;-60
2023/06/27 05:04:07;;;;;;;42.00;11.40;;;16.10;92.50;;;;;;5090065;27;20478;-60
2023/06/27 05:06:35;;;;;;;25.37;8.80;;;16.10;92.80;;;;;;5090336;27;21306;-60
2023/06/27 05:09:08;;;;;;;28.53;8.20;;;16.20;93.00;;;;;;5081472;27;22709;-60
2023/06/27 05:11:35;;;;;;;26.37;8.53;;;16.20;92.70;;;;;;5099838;27;20472;-60
2023/06/27 05:14:01;;;;;;;30.83;10.00;;;16.40;92.70;;;;;;5106702;27;20871;-60
2023/06/27 05:16:28;;;;;;;28.67;9.30;;;16.50;92.70;;;;;;5075718;28;20945;-60
2023/06/27 05:18:55;;;;;;;22.20;8.27;;;16.80;92.50;;;;;;5080225;28;20477;-59
2023/06/27 05:21:22;;;;;;;23.67;8.23;;;16.90;92.40;;;;;;5090970;27;20484;-59
2023/06/27 05:23:50;;;;;;;20.27;6.73;;;17.10;92.20;;;;;;5101235;27;20526;-60
2023/06/27 05:26:17;;;;;;;20.73;8.00;;;17.20;92.20;;;;;;5084573;28;20472;-60
2023/06/27 05:28:43;;;;;;;22.60;6.60;;;17.20;92.10;;;;;;5104884;27;20889;-60
2023/06/27 05:31:10;;;;;;;32.27;10.43;;;17.20;92.40;;;;;;5073884;28;20528;-60
2023/06/27 05:33:37;;;;;;;20.20;7.60;;;17.20;92.80;;;;;;5080286;28;20515;-60
2023/06/27 05:36:04;;;;;;;42.77;12.90;;;17.20;93.10;;;;;;5078274;28;20490;-61
2023/06/27 05:38:30;;;;;;;20.30;7.57;;;17.10;92.90;;;;;;5064224;28;20480;-60
2023/06/27 05:40:58;;;;;;;36.33;11.27;;;17.20;93.50;;;;;;5090408;27;20834;-60
2023/06/27 05:43:25;;;;;;;36.13;10.90;;;17.30;93.30;;;;;;5080425;28;20493;-59
2023/06/27 05:45:52;;;;;;;22.43;7.80;;;17.40;93.40;;;;;;5092008;27;20515;-60
2023/06/27 05:48:18;;;;;;;28.20;8.23;;;17.50;92.40;;;;;;5106335;27;20637;-60
2023/06/27 05:50:45;;;;;;;23.20;7.73;;;17.60;92.60;;;;;;5104473;27;20526;-60
2023/06/27 05:53:12;;;;;;;27.57;9.00;;;17.70;92.30;;;;;;5082783;27;20484;-61
2023/06/27 05:55:39;;;;;;;17.13;6.93;;;18.00;92.40;;;;;;5104767;27;20543;-61
2023/06/27 05:58:07;;;;;;;39.43;11.27;;;18.00;91.80;;;;;;5076809;28;21796;-61
2023/06/27 06:00:33;;;;;;;21.43;8.53;;;18.00;92.20;;;;;;5102982;27;20488;-61
2023/06/27 06:03:00;;;;;;;38.00;12.73;;;18.10;92.10;;;;;;5108776;27;20529;-61
2023/06/27 06:05:27;;;;;;;20.30;8.60;;;18.10;92.30;;;;;;5092342;27;20477;-61
2023/06/27 06:07:53;;;;;;;18.70;6.73;;;18.10;92.50;;;;;;5111991;27;20492;-61
2023/06/27 06:10:21;;;;;;;35.20;10.33;;;;;;;;;;5077311;28;20473;-61
2023/06/27 06:12:48;;;;;;;13.93;6.50;;;18.30;92.20;;;;;;5109801;27;20468;-61
2023/06/27 06:15:17;;;;;;;28.20;8.80;;;18.40;92.10;;;;;;5107901;27;20469;-60
2023/06/27 06:17:43;;;;;;;21.70;7.33;;;18.60;91.50;;;;;;5086247;27;20884;-61
2023/06/27 06:20:11;;;;;;;29.60;10.70;;;18.80;91.60;;;;;;5114441;27;20891;-61
2023/06/27 06:22:38;;;;;;;21.17;7.73;;;18.90;91.90;;;;;;5096939;27;20492;-61
2023/06/27 06:25:05;;;;;;;28.30;9.93;;;19.10;90.90;;;;;;5101590;27;20496;-61
2023/06/27 06:27:32;;;;;;;19.00;7.93;;;19.20;90.10;;;;;;5085262;27;20484;-61
2023/06/27 06:29:58;;;;;;;25.90;9.07;;;19.40;90.30;;;;;;5093099;27;20467;-61
2023/06/27 06:32:26;;;;;;;26.23;9.47;;;19.50;86.20;;;;;;5109177;27;21330;-61
2023/06/27 06:34:53;;;;;;;23.57;8.13;;;19.60;88.00;;;;;;5103472;27;20844;-61
2023/06/27 06:37:20;;;;;;;20.03;7.67;;;19.60;85.30;;;;;;5094417;28;20552;-61
2023/06/27 06:39:46;;;;;;;24.60;7.60;;;19.80;88.40;;;;;;5101507;27;20769;-61
2023/06/27 06:42:13;;;;;;;23.53;8.47;;;20.00;86.10;;;;;;5078943;28;21070;-60
2023/06/27 06:44:40;;;;;;;12.43;5.57;;;20.20;85.40;;;;;;5105697;27;20981;-61
2023/06/27 06:47:07;;;;;;;31.73;12.20;;;20.30;85.40;;;;;;5110839;27;21186;-61
2023/06/27 06:49:35;;;;;;;19.63;8.93;;;20.40;83.60;;;;;;5107152;27;20899;-61
2023/06/27 06:52:02;;;;;;;40.67;14.73;;;20.60;85.40;;;;;;5113789;27;20482;-61
2023/06/27 06:54:28;;;;;;;17.53;7.37;;;20.80;85.30;;;;;;5108830;27;20490;-60
2023/06/27 06:56:55;;;;;;;21.00;7.93;;;21.10;84.50;;;;;;5061325;28;21058;-61
2023/06/27 06:59:22;;;;;;;18.70;7.90;;;21.10;83.00;;;;;;5088709;28;20934;-61
2023/06/27 07:01:48;;;;;;;15.30;6.17;;;21.50;82.50;;;;;;5106177;27;20479;-60
2023/06/27 07:04:15;;;;;;;15.43;6.93;;;21.60;81.60;;;;;;5112958;27;20868;-61
2023/06/27 07:06:43;;;;;;;11.50;5.60;;;21.80;81.90;;;;;;5060855;28;21106;-60
2023/06/27 07:09:10;;;;;;;25.77;10.33;;;22.20;82.50;;;;;;5103414;27;20936;-61
2023/06/27 07:11:36;;;;;;;19.87;7.33;;;22.40;80.40;;;;;;5089112;27;20503;-61
2023/06/27 07:14:03;;;;;;;24.60;10.63;;;22.60;80.80;;;;;;5083202;27;20477;-61
2023/06/27 07:16:30;;;;;;;20.40;7.30;;;22.90;79.90;;;;;;5112918;27;20888;-61
2023/06/27 07:18:56;;;;;;;22.27;9.40;;;23.00;79.50;;;;;;5116507;27;20463;-61
2023/06/27 07:21:23;;;;;;;13.77;6.67;;;23.20;77.30;;;;;;5122851;27;20476;-61
2023/06/27 07:23:51;;;;;;;24.93;8.07;;;23.30;76.90;;;;;;5096057;27;20930;-60
2023/06/27 07:26:18;;;;;;;18.77;9.10;;;23.10;76.40;;;;;;5109219;27;20949;-61
2023/06/27 07:28:45;;;;;;;13.60;6.87;;;22.90;74.60;;;;;;5095721;27;20533;-61
2023/06/27 07:31:11;;;;;;;19.37;8.87;;;22.60;74.20;;;;;;5094818;27;21382;-61
2023/06/27 07:33:38;;;;;;;19.07;7.57;;;22.50;74.20;;;;;;5113481;27;20488;-62
2023/06/27 07:36:05;;;;;;;33.47;13.33;;;22.60;75.80;;;;;;5079342;27;20489;-61
2023/06/27 07:38:32;;;;;;;22.57;8.60;;;;;;;;;;5103445;27;20872;-61
2023/06/27 07:41:00;;;;;;;25.93;9.97;;;22.80;78.80;;;;;;5109639;27;20468;-60
2023/06/27 07:43:27;;;;;;;18.80;8.40;;;23.00;78.90;;;;;;5106789;27;20688;-60
2023/06/27 07:45:53;;;;;;;22.97;8.50;;;23.20;75.80;;;;;;5115777;27;20472;-61
2023/06/27 07:48:20;;;;;;;19.83;7.53;;;23.60;78.60;;;;;;5111287;27;20824;-61
2023/06/27 07:50:47;;;;;;;13.53;6.17;;;23.80;75.50;;;;;;5112265;27;20840;-61
2023/06/27 07:53:13;;;;;;;19.50;7.50;;;23.50;72.80;;;;;;5108637;27;20778;-61
2023/06/27 07:55:40;;;;;;;11.27;5.23;;;23.20;72.70;;;;;;5110298;27;20893;-61
2023/06/27 07:58:09;;;;;;;24.00;10.37;;;23.10;73.90;;;;;;5110354;27;20488;-61
2023/06/27 08:00:36;;;;;;;19.00;7.73;;;23.00;74.90;;;;;;5118922;27;20484;-61
2023/06/27 08:03:03;;;;;;;24.80;9.07;;;22.80;74.60;;;;;;5115996;27;20492;-61
2023/06/27 08:05:34;;;;;;;20.70;8.00;;;22.90;75.70;;;;;;5077890;27;20483;-61
2023/06/27 08:08:01;;;;;;;11.20;5.50;;;23.00;74.00;;;;;;5095885;27;20493;-61
2023/06/27 08:10:28;;;;;;;18.50;7.57;;;23.20;74.60;;;;;;5105082;27;20486;-60
2023/06/27 08:12:55;;;;;;;16.77;7.57;;;23.10;72.30;;;;;;5109581;27;20495;-61
2023/06/27 08:15:23;;;;;;;23.33;9.40;;;23.20;71.90;;;;;;5111432;27;20529;-61
2023/06/27 08:17:50;;;;;;;21.37;7.00;;;23.40;73.00;;;;;;5117642;27;20480;-61
2023/06/27 08:20:16;;;;;;;19.93;7.53;;;23.60;73.70;;;;;;5098754;27;20550;-61
2023/06/27 08:22:44;;;;;;;11.10;6.03;;;23.60;70.80;;;;;;5086581;27;20511;-61
2023/06/27 08:25:11;;;;;;;28.57;11.63;;;23.70;73.30;;;;;;5098466;27;20587;-61
2023/06/27 08:27:38;;;;;;;23.20;8.30;;;23.90;74.20;;;;;;5110414;27;20464;-61
2023/06/27 08:30:06;;;;;;;16.00;7.30;;;24.30;74.80;;;;;;5107635;27;20980;-61
2023/06/27 08:32:34;;;;;;;14.57;6.87;;;24.20;72.00;;;;;;5105134;27;20868;-61
2023/06/27 08:35:04;;;;;;;27.07;12.07;;;24.00;69.30;;;;;;5110343;27;20476;-61
2023/06/27 08:37:30;;;;;;;17.33;6.20;;;23.90;69.90;;;;;;5102167;27;20488;-62
2023/06/27 08:39:57;;;;;;;24.23;9.80;;;23.90;70.00;;;;;;5123565;27;20913;-61
2023/06/27 08:42:24;;;;;;;19.27;6.40;;;24.00;71.20;;;;;;5112474;27;20878;-60
2023/06/27 08:44:50;;;;;;;27.00;7.17;;;24.30;72.40;;;;;;5113205;27;20525;-60
2023/06/27 08:47:21;;;;;;;17.03;7.77;;;24.30;70.20;;;;;;5110869;27;20543;-60
2023/06/27 08:49:51;;;;;;;13.13;6.80;;;24.40;72.00;;;;;;5110853;27;20810;-60
2023/06/27 08:52:20;;;;;;;18.97;6.77;;;24.30;72.60;;;;;;5101134;27;20476;-61
2023/06/27 08:54:53;;;;;;;21.30;8.17;;;24.00;69.90;;;;;;5107887;27;20477;-60
2023/06/27 08:57:22;;;;;;;18.30;6.50;;;23.80;71.30;;;;;;5070644;27;20477;-61
2023/06/27 08:59:50;;;;;;;16.63;6.83;;;23.60;71.00;;;;;;5085178;28;20488;-61
2023/06/27 09:02:17;;;;;;;21.83;9.80;;;23.60;71.50;;;;;;5084815;28;20560;-61
2023/06/27 09:04:45;;;;;;;25.57;7.93;;;23.80;71.20;;;;;;5090399;27;20522;-60
2023/06/27 09:07:14;;;;;;;15.43;7.50;;;23.90;72.50;;;;;;5110132;27;20858;-61
2023/06/27 09:09:42;;;;;;;13.43;6.27;;;24.20;72.40;;;;;;5105035;27;20572;-61
2023/06/27 09:12:09;;;;;;;32.67;9.23;;;24.30;69.40;;;;;;5091139;27;20872;-60
2023/06/27 09:14:36;;;;;;;16.13;7.13;;;24.40;70.00;;;;;;5069632;28;20470;-60
2023/06/27 09:17:05;;;;;;;26.20;11.03;;;24.40;69.50;;;;;;5087417;27;20540;-60
2023/06/27 09:19:32;;;;;;;14.70;5.33;;;24.50;70.80;;;;;;5079564;28;20468;-61
2023/06/27 09:22:00;;;;;;;23.37;7.90;;;24.40;69.50;;;;;;5068408;27;20494;-61
2023/06/27 09:24:30;;;;;;;19.13;7.43;;;24.40;70.60;;;;;;5090451;27;20481;-61
2023/06/27 09:26:57;;;;;;;27.53;9.07;;;24.50;67.70;;;;;;5078320;28;20993;-60
2023/06/27 09:29:31;;;;;;;21.70;9.60;;;24.40;69.80;;;;;;5067423;27;22076;-61
2023/06/27 09:32:05;;;;;;;19.20;8.50;;;24.50;69.90;;;;;;5090905;27;21063;-61
2023/06/27 09:34:34;;;;;;;18.63;9.23;;;24.80;71.10;;;;;;5099907;27;21014;-61
2023/06/27 09:37:02;;;;;;;34.87;13.47;;;24.90;66.60;;;;;;5084727;27;20475;-62
2023/06/27 09:39:30;;;;;;;23.97;8.20;;;24.80;67.70;;;;;;5096196;27;20861;-62
2023/06/27 09:41:57;;;;;;;26.70;11.70;;;24.60;69.80;;;;;;5097313;27;20480;-61
2023/06/27 09:44:25;;;;;;;19.40;8.87;;;24.40;69.50;;;;;;5100067;27;20881;-61
2023/06/27 09:46:54;;;;;;;16.67;6.87;;;24.40;70.90;;;;;;5101956;27;20479;-61
2023/06/27 09:49:21;;;;;;;22.40;8.43;;;24.30;70.40;;;;;;5076880;28;20810;-62
2023/06/27 09:51:50;;;;;;;16.03;6.90;;;24.40;70.80;;;;;;5088273;27;20476;-61
2023/06/27 09:54:20;;;;;;;24.80;8.67;;;24.40;70.20;;;;;;5070240;27;21038;-62
2023/06/27 09:56:51;;;;;;;14.97;7.00;;;24.50;69.60;;;;;;5094791;27;20472;-61
2023/06/27 09:59:18;;;;;;;21.67;7.50;;;24.60;69.40;;;;;;5099458;28;20511;-61
2023/06/27 10:01:45;;;;;;;16.73;6.70;;;24.70;67.60;;;;;;5103527;28;20537;-62
2023/06/27 10:04:12;;;;;;;22.50;9.30;;;24.90;70.00;;;;;;5079991;28;20722;-61
2023/06/27 10:06:40;;;;;;;16.23;5.27;;;25.20;68.00;;;;;;5101616;28;20486;-61
2023/06/27 10:09:08;;;;;;;27.20;10.93;;;25.20;65.70;;;;;;5080681;28;20473;-62
2023/06/27 10:11:37;;;;;;;24.10;9.43;;;25.30;69.80;;;;;;5083243;28;20476;-62
2023/06/27 10:14:05;;;;;;;31.10;10.43;;;25.40;67.50;;;;;;5088690;28;20571;-61
2023/06/27 10:16:32;;;;;;;19.23;7.53;;;25.40;66.20;;;;;;5099629;28;20482;-62
2023/06/27 10:18:59;;;;;;;26.43;11.10;;;25.30;65.30;;;;;;5089493;28;20576;-61
2023/06/27 10:21:28;;;;;;;20.00;7.83;;;25.20;65.80;;;;;;5088832;28;20476;-62
2023/06/27 10:23:59;;;;;;;28.63;10.07;;;25.10;68.10;;;;;;5099370;28;20488;-61
2023/06/27 10:26:26;;;;;;;25.17;9.30;;;25.20;69.40;;;;;;5084522;28;20477;-61
2023/06/27 10:28:54;;;;;;;21.77;6.40;;;25.30;67.70;;;;;;5086320;28;20485;-62
2023/06/27 10:31:44;;;;;;;22.50;8.87;;;25.20;64.80;;;;;;5102187;28;20476;-60
2023/06/27 10:34:17;;;;;;;19.83;7.07;;;25.30;67.10;;;;;;5097554;28;20837;-61
2023/06/27 10:36:58;;;;;;;12.77;5.27;;;25.40;66.60;;;;;;5101972;27;20484;-62
2023/06/27 10:39:29;;;;;;;21.77;7.07;;;25.30;66.30;;;;;;5104611;27;20863;-60
2023/06/27 10:42:03;;;;;;;31.33;11.50;;;25.30;65.00;;;;;;5100324;27;20472;-61
2023/06/27 10:44:31;;;;;;;30.50;8.57;;;25.50;66.80;;;;;;5104124;27;20474;-61
2023/06/27 10:47:34;;;;;;;36.53;12.17;;;25.50;66.50;;;;;;5106438;27;20478;-61
2023/06/27 10:50:12;;;;;;;46.57;14.47;;;25.40;66.00;;;;;;5099111;27;20825;-63
2023/06/27 10:52:40;;;;;;;12.77;5.47;;;25.30;65.50;;;;;;5113336;27;20560;-62
2023/06/27 10:55:21;;;;;;;23.67;7.10;;;25.30;64.00;;;;;;5127213;27;20670;-62
2023/06/27 10:57:50;;;;;;;11.70;5.57;;;25.40;67.10;;;;;;5125910;27;20470;-61
2023/06/27 11:00:24;;;;;;;36.47;7.83;;;25.70;66.00;;;;;;5125750;27;20498;-62
2023/06/27 11:02:54;;;;;;;16.77;6.63;;;25.90;63.50;;;;;;5121671;27;20486;-61
2023/06/27 11:05:35;;;;;;;26.97;8.80;;;25.70;62.10;;;;;;5124681;27;20710;-62
2023/06/27 11:08:02;;;;;;;34.67;13.27;;;25.50;63.70;;;;;;5125414;27;21013;-63
2023/06/27 11:10:30;;;;;;;20.63;8.10;;;25.40;63.30;;;;;;5105578;27;20484;-62
2023/06/27 11:13:15;;;;;;;29.37;8.90;;;25.20;63.70;;;;;;5110581;27;20829;-60
2023/06/27 11:15:43;;;;;;;13.20;5.67;;;25.20;64.00;;;;;;5105294;27;20556;-61
2023/06/27 11:18:14;;;;;;;27.20;9.10;;;25.20;64.60;;;;;;5116374;27;20792;-61
2023/06/27 11:20:41;;;;;;;16.43;7.20;;;25.40;63.20;;;;;;5105313;27;21000;-61
2023/06/27 11:23:08;;;;;;;25.53;9.00;;;25.70;64.50;;;;;;5097280;27;20581;-62
2023/06/27 11:25:40;;;;;;;18.30;6.33;;;25.80;60.00;;;;;;5069579;27;20816;-62
2023/06/27 11:28:07;;;;;;;19.03;8.53;;;25.90;59.70;;;;;;5093199;27;20476;-62
2023/06/27 11:30:35;;;;;;;15.23;7.43;;;26.30;63.10;;;;;;5091705;27;20925;-61
2023/06/27 11:33:02;;;;;;;13.10;6.50;;;26.50;59.60;;;;;;5085570;27;20493;-62
2023/06/27 11:35:32;;;;;;;15.97;7.03;;;26.60;59.20;;;;;;5096226;27;20605;-63
2023/06/27 11:37:59;;;;;;;20.03;8.93;;;26.70;59.50;;;;;;5098621;27;20532;-62
2023/06/27 11:40:27;;;;;;;12.20;5.37;;;26.60;58.40;;;;;;5108149;27;20480;-62
2023/06/27 11:43:01;;;;;;;17.00;7.50;;;26.60;57.20;;;;;;5078467;27;20523;-61
2023/06/27 11:45:28;;;;;;;14.40;4.67;;;26.70;62.50;;;;;;5107644;27;20992;-62
2023/06/27 11:47:54;;;;;;;30.20;8.57;;;26.60;60.40;;;;;;5108018;27;20476;-61
2023/06/27 11:50:22;;;;;;;12.87;6.27;;;26.70;60.20;;;;;;5119751;27;20468;-61
2023/06/27 11:52:50;;;;;;;14.70;4.00;;;26.70;60.00;;;;;;5075381;27;20479;-62
2023/06/27 11:55:17;;;;;;;15.67;6.00;;;26.70;60.80;;;;;;5093010;27;20476;-61
2023/06/27 11:57:46;;;;;;;8.47;4.40;;;26.60;58.90;;;;;;5098428;27;20480;-62
2023/06/27 12:00:18;;;;;;;20.37;7.13;;;26.70;58.60;;;;;;5114594;27;20958;-63
2023/06/27 12:02:49;;;;;;;12.87;5.07;;;26.80;58.40;;;;;;5039192;28;20552;-63
2023/06/27 12:05:17;;;;;;;9.23;5.13;;;27.20;60.50;;;;;;5079508;27;21034;-61
2023/06/27 12:07:56;;;;;;;9.40;5.30;;;27.20;59.50;;;;;;5110586;27;20477;-62
2023/06/27 12:10:23;;;;;;;12.00;6.33;;;27.50;60.30;;;;;;5103600;27;20480;-63
2023/06/27 12:12:51;;;;;;;10.20;4.77;;;27.90;59.80;;;;;;5083784;27;20484;-63
2023/06/27 12:15:18;;;;;;;15.20;7.00;;;28.20;61.20;;;;;;5093379;27;20827;-62
2023/06/27 12:17:58;;;;;;;9.90;5.53;;;28.60;60.00;;;;;;5094305;27;21127;-62
2023/06/27 12:20:25;;;;;;;8.50;3.73;;;28.80;60.00;;;;;;5094753;27;21018;-62
2023/06/27 12:22:52;;;;;;;9.00;4.90;;;28.90;54.30;;;;;;5110199;27;20498;-62
2023/06/27 12:25:20;;;;;;;11.93;6.07;;;29.00;57.40;;;;;;5095302;27;20472;-62
2023/06/27 12:27:47;;;;;;;9.93;4.63;;;28.80;56.20;;;;;;5119370;27;21283;-61
2023/06/27 12:30:14;;;;;;;22.57;7.10;;;28.70;56.30;;;;;;5099477;27;20473;-61
2023/06/27 12:32:41;;;;;;;14.77;5.23;;;28.60;57.10;;;;;;5101674;27;20520;-62
2023/06/27 12:35:09;;;;;;;9.07;5.60;;;28.50;55.90;;;;;;5078931;27;20546;-62
2023/06/27 12:37:37;;;;;;;12.87;4.87;;;28.10;53.30;;;;;;5075659;27;20504;-62
2023/06/27 12:40:05;;;;;;;10.57;4.13;;;28.00;54.70;;;;;;5117959;27;20533;-62